• Join FlightAware (Why Join?)
  • Login
  • US Flag 
01:12AM EDT


 

Airport Tracker/Info


-or-


 

Live Flight TrackerFlight Track Log ✈ AWE710 ✈ 17-Apr-2013 ✈ KDFW - KPHL

Flight Track Log - Related Links

Times and Time Zones

All times are in EDT time to prevent confusion due to time zone crossing. See the AWE710 flight status page for this flight to view local times or setup timezone preferences in your user account.

Time Position Orientation Groundspeed Altitude Reporting Facility
EDT Latitude Longitude Course Direction KTS MPH feet Rate Location/Type
02:03PM 32.8500 -97.0333 66° East 179 206 3,400  Level Dallas / Fort Worth TRACON
02:04PM 32.8000 -97.0000 151° Southeast 197 227 6,300 2,820 Climbing Dallas / Fort Worth TRACON
02:05PM 32.8308 -96.7044 56° Northeast  Level FlightAware Approximate
02:05PM 32.7667 -96.9333 121° Southeast 277 319 8,800  Level Dallas / Fort Worth TRACON
02:06PM 32.9050 -96.5806 54° Northeast  Level FlightAware Approximate
02:07PM 32.9826 -96.4596 51° Northeast  Level FlightAware Approximate
02:07PM 32.8089 -96.7733 73° East 368 423 12,200  Level Fort Worth Center
02:08PM 33.0621 -96.3402 52° Northeast  Level FlightAware Approximate
02:08PM 32.8792 -96.6589 54° Northeast 373 429 15,400  Level Fort Worth Center
02:09PM 33.1078 -96.1995 66° East  Level FlightAware Approximate
02:09PM 32.9392 -96.5619 54° Northeast 396 456 17,600  Level Fort Worth Center
02:10PM 33.0153 -96.4397 53° Northeast 414 476 19,000 660 Climbing Fort Worth Center
02:11PM 33.0794 -96.3400 52° Northeast 414 476 19,000 960 Level Fort Worth Center
02:12PM 33.1239 -96.2006 69° East 406 467 21,000 1,920 Climbing Fort Worth Center
02:13PM 33.1583 -96.0783 71° East 418 481 22,900 2,040 Climbing Fort Worth Center
02:14PM 33.2025 -95.9239 71° East 433 498 25,100 1,980 Climbing Fort Worth Center
02:15PM 33.2425 -95.7842 71° East 440 506 26,900 1,800 Climbing Fort Worth Center
02:16PM 33.2656 -95.6347 80° East 446 513 28,800 1,800 Climbing Fort Worth Center
02:17PM 33.2883 -95.4875 79° East 451 519 30,500 1,200 Climbing Fort Worth Center
02:18PM 33.3319 -95.3350 71° East 461 531 31,200 960 Climbing Fort Worth Center
02:19PM 33.3833 -95.1744 69° East 489 563 32,500 2,880 Climbing Fort Worth Center
02:20PM 33.4347 -95.0164 69° East 501 577 37,000 1,500 Climbing Fort Worth Center
02:21PM 33.4858 -94.8606 68° East 501 577 35,600 -120 Descending Fort Worth Center
02:22PM 33.5369 -94.7022 69° East 506 582 36,800 660 Climbing Fort Worth Center
02:23PM 33.5875 -94.5436 69° East 506 582 37,000 60 Climbing Fort Worth Center
02:24PM 33.6403 -94.3847 68° East 506 582 37,000  Level Fort Worth Center
02:25PM 33.6847 -94.2458 69° East 501 577 37,000  Level Fort Worth Center
02:26PM 33.7478 -94.1011 62° Northeast 496 571 37,000  Level Fort Worth Center
02:26PM 33.7869 -94.0286 57° Northeast 498 573 37,000  Level Memphis Center
02:27PM 33.8425 -93.9111 60° Northeast 500 575 37,000  Level Memphis Center
02:28PM 33.9197 -93.7589 59° Northeast 490 564 37,000  Level Memphis Center
02:29PM 33.9883 -93.6164 60° Northeast 490 564 37,000  Level Memphis Center
02:30PM 34.0567 -93.4761 60° Northeast 485 558 37,000  Level Memphis Center
02:31PM 34.1289 -93.3331 59° Northeast 485 558 37,000  Level Memphis Center
02:32PM 34.1969 -93.1897 60° Northeast 485 558 37,000  Level Memphis Center
02:33PM 34.2650 -93.0464 60° Northeast 485 558 37,000  Level Memphis Center
02:34PM 34.3392 -92.8850 61° Northeast 485 558 37,000  Level Memphis Center
02:35PM 34.4086 -92.7461 59° Northeast 485 558 37,000  Level Memphis Center
02:36PM 34.4761 -92.6044 60° Northeast 479 551 37,000  Level Memphis Center
02:37PM 34.5475 -92.4575 59° Northeast 484 557 37,000  Level Memphis Center
02:38PM 34.6144 -92.3103 61° Northeast 484 557 37,000  Level Memphis Center
02:39PM 34.6853 -92.1756 57° Northeast 484 557 37,000  Level Memphis Center
02:40PM 34.7747 -92.0536 48° Northeast 484 557 37,000  Level Memphis Center
02:41PM 34.8703 -91.9367 45° Northeast 479 551 37,000  Level Memphis Center
02:42PM 34.9614 -91.8167 47° Northeast 479 551 37,000  Level Memphis Center
02:43PM 35.0522 -91.7014 46° Northeast 474 545 37,000  Level Memphis Center
02:44PM 35.1411 -91.5836 47° Northeast 474 545 37,000  Level Memphis Center
02:45PM 35.2319 -91.4628 47° Northeast 474 545 37,000  Level Memphis Center
02:46PM 35.3142 -91.3569 46° Northeast 474 545 37,000  Level Memphis Center
02:47PM 35.4069 -91.2383 46° Northeast 474 545 37,000  Level Memphis Center
02:48PM 35.4972 -91.1194 47° Northeast 474 545 37,000  Level Memphis Center
02:49PM 35.5878 -90.9978 48° Northeast 474 545 37,000  Level Memphis Center
02:50PM 35.6800 -90.8783 46° Northeast 474 545 37,000  Level Memphis Center
02:51PM 35.7744 -90.7433 49° Northeast 468 539 37,000  Level Memphis Center
02:52PM 35.8622 -90.6258 47° Northeast 468 539 37,000  Level Memphis Center
02:53PM 35.9522 -90.5031 48° Northeast 468 539 37,000  Level Memphis Center
02:54PM 36.0336 -90.4006 46° Northeast 468 539 37,000  Level Memphis Center
02:55PM 36.1211 -90.2800 48° Northeast 463 533 37,000  Level Memphis Center
02:56PM 36.2064 -90.1589 49° Northeast 463 533 37,000  Level Memphis Center
02:57PM 36.2958 -90.0403 47° Northeast 463 533 37,000  Level Memphis Center
02:58PM 36.3808 -89.9239 48° Northeast 463 533 37,000  Level Memphis Center
02:59PM 36.4700 -89.8047 47° Northeast 463 533 37,000  Level Memphis Center
03:00PM 36.5569 -89.6853 48° Northeast 463 533 37,000  Level Memphis Center
03:01PM 36.6417 -89.5683 48° Northeast 463 533 37,000  Level Memphis Center
03:02PM 36.7286 -89.4508 47° Northeast 463 533 37,000  Level Memphis Center
03:03PM 36.8172 -89.3358 46° Northeast 463 533 37,000  Level Memphis Center
03:04PM 36.9250 -89.2694 26° Northeast 446 513 37,000  Level Memphis Center
03:05PM 37.0369 -89.2056 24° Northeast 434 499 37,000  Level Memphis Center
03:06PM 37.1469 -89.1494 22° Northeast 434 499 37,000  Level Memphis Center
03:07PM 37.2608 -89.0903 22° Northeast 434 499 37,000  Level Memphis Center
03:10PM 37.5400 -88.9539 21° North 443 510 37,000  Level Kansas City Center
03:11PM 37.6606 -88.9078 17° North 448 516 37,000  Level Kansas City Center
03:12PM 37.7808 -88.8628 16° North 449 517 37,000  Level Kansas City Center
03:13PM 37.8606 -88.7458 49° Northeast 450 518 37,000  Level Kansas City Center
03:14PM 37.9447 -88.5994 54° Northeast 449 517 37,000  Level Kansas City Center
03:15PM 38.0153 -88.4700 55° Northeast 446 513 37,000  Level Kansas City Center
03:16PM 38.0847 -88.3397 56° Northeast 444 511 37,000  Level Kansas City Center
03:17PM 38.1553 -88.2081 56° Northeast 446 513 37,000  Level Kansas City Center
03:18PM 38.2275 -88.0786 55° Northeast 446 513 37,000  Level Kansas City Center
03:19PM 38.3144 -87.9197 55° Northeast 450 518 37,100  Climbing Indianapolis Center
03:20PM 38.3850 -87.7886 56° Northeast 447 514 37,000 -60 Descending Indianapolis Center
03:21PM 38.4553 -87.6581 55° Northeast 444 511 37,000  Level Indianapolis Center
03:22PM 38.5250 -87.5278 56° Northeast 441 507 37,000  Level Indianapolis Center
03:23PM 38.5958 -87.3942 56° Northeast 446 513 37,000  Level Indianapolis Center
03:24PM 38.6675 -87.2608 55° Northeast 448 516 37,000  Level Indianapolis Center
03:25PM 38.7372 -87.1272 56° Northeast 445 512 37,000  Level Indianapolis Center
03:26PM 38.8078 -86.9939 56° Northeast 446 513 37,000  Level Indianapolis Center
03:27PM 38.8789 -86.8586 56° Northeast 453 521 37,000  Level Indianapolis Center
03:28PM 38.9639 -86.6944 56° Northeast 457 526 37,000  Level Indianapolis Center
03:29PM 39.0342 -86.5603 56° Northeast 452 520 37,000  Level Indianapolis Center
03:30PM 39.1042 -86.4228 57° Northeast 457 526 37,000  Level Indianapolis Center
03:32PM 39.1744 -86.2861 56° Northeast 455 524 37,000  Level Indianapolis Center
03:33PM 39.2147 -86.1286 72° East 458 527 37,000  Level Indianapolis Center
03:34PM 39.2444 -85.9636 77° East 469 540 37,000  Level Indianapolis Center
03:35PM 39.2758 -85.8006 76° East 466 536 37,000  Level Indianapolis Center
03:36PM 39.3103 -85.6036 77° East 468 539 37,000 -60 Level Indianapolis Center
03:37PM 39.3381 -85.4519 77° East 467 537 36,900 -60 Descending Indianapolis Center
03:38PM 39.3675 -85.2872 77° East 466 536 36,900  Level Indianapolis Center
03:39PM 39.3969 -85.1206 77° East 472 543 36,900  Level Indianapolis Center
03:40PM 39.4311 -84.9236 77° East 478 550 37,000  Climbing Indianapolis Center
03:41PM 39.4594 -84.7525 78° East 482 555 37,000  Level Indianapolis Center
03:42PM 39.4900 -84.5817 77° East 483 556 37,000  Level Indianapolis Center
03:43PM 39.5181 -84.4108 78° East 482 555 37,000  Level Indianapolis Center
03:44PM 39.5472 -84.2394 78° East 483 556 37,000 -60 Level Indianapolis Center
03:45PM 39.5756 -84.0686 78° East 483 556 36,900  Descending Indianapolis Center
03:46PM 39.6042 -83.8989 78° East 481 554 37,000  Climbing Indianapolis Center
03:47PM 39.6361 -83.6994 78° East 482 555 37,000  Level Indianapolis Center
03:48PM 39.6631 -83.5283 78° East 485 558 37,000  Level Indianapolis Center
03:49PM 39.6906 -83.3589 78° East 486 559 37,000  Level Indianapolis Center
03:50PM 39.7175 -83.1875 78° East 487 560 37,000  Level Indianapolis Center
03:51PM 39.7447 -83.0169 78° East 482 555 37,000 -60 Level Indianapolis Center
03:52PM 39.7767 -82.8164 78° East 482 555 36,900  Descending Indianapolis Center
03:53PM 39.8017 -82.6472 79° East 476 548 37,000  Climbing Indianapolis Center
03:54PM 39.8272 -82.4778 79° East 474 545 37,000  Level Indianapolis Center
03:55PM 39.8542 -82.3078 78° East 476 548 37,000  Level Indianapolis Center
03:56PM 39.8792 -82.1344 79° East 482 555 37,000  Level Indianapolis Center
03:57PM 39.9050 -81.9611 79° East 485 558 37,000  Level Indianapolis Center
03:58PM 39.9294 -81.7869 80° East 485 558 37,000  Level Indianapolis Center
03:59PM 39.9544 -81.6122 79° East 486 559 37,000  Level Indianapolis Center
04:00PM 39.9803 -81.4286 80° East 485 558 37,000  Level Indianapolis Center
04:01PM 40.0047 -81.2542 80° East 486 559 37,000  Level Indianapolis Center
04:02PM 40.0294 -81.0789 80° East 488 562 37,000  Level Indianapolis Center
04:03PM 40.0500 -80.9547 78° East 485 558 37,000  Level Cleveland Center
04:04PM 40.0733 -80.7783 80° East 485 558 37,000  Level Cleveland Center
04:05PM 40.0964 -80.6019 80° East 485 558 37,000  Level Cleveland Center
04:06PM 40.1211 -80.4256 80° East 485 558 37,000  Level Cleveland Center
04:07PM 40.1417 -80.2356 82° East 484 557 37,000  Level Cleveland Center
04:08PM 40.1639 -80.0589 81° East 484 557 37,000  Level Cleveland Center
04:09PM 40.2067 -79.8872 72° East 484 557 37,000  Level Cleveland Center
04:10PM 40.3039 -79.7717 42° Northeast 453 521 37,000 -360 Level Cleveland Center
04:11PM 40.4117 -79.6669 36° Northeast 458 527 36,300 -1,020 Descending Cleveland Center
04:12PM 40.4686 -79.5050 65° Northeast 467 537 35,000 -1,620 Descending Cleveland Center
04:13PM 40.4439 -79.3336 101° East 446 513 33,100 -1,020 Descending Cleveland Center
04:14PM 40.3653 -79.1933 126° Southeast 416 479 33,000 -720 Descending Cleveland Center
04:15PM 40.3339 -79.0253 104° East 447 514 31,700 -1,020 Descending Cleveland Center
04:16PM 40.3189 -78.8622 97° East 481 554 31,000 -660 Descending Cleveland Center
04:17PM 40.3161 -78.6881 91° East 488 562 30,400 -840 Descending Cleveland Center
04:18PM 40.3153 -78.5108 90° East 482 555 29,400 -1,200 Descending Cleveland Center
04:20PM 40.3122 -78.1508 91° East 500 575 26,900 -1,560 Descending New York Center
04:21PM 40.3125 -77.9794 90° East 500 575 25,000 -1,140 Descending New York Center
04:22PM 40.3103 -77.8075 91° East 481 554 24,700 -1,020 Descending New York Center
04:23PM 40.3114 -77.6444 89° East 459 528 23,000 -840 Descending New York Center
04:24PM 40.3083 -77.4806 91° East 454 522 23,000  Level New York Center
04:25PM 40.3072 -77.3172 90° East 448 516 23,000 -1,140 Level New York Center
04:26PM 40.3033 -77.1589 92° East 442 509 20,800 -2,280 Descending New York Center
04:27PM 40.2883 -77.0078 97° East 431 496 18,400 -1,620 Descending New York Center
04:28PM 40.2586 -76.8608 105° East 415 478 17,600 -900 Descending New York Center
04:29PM 40.2381 -76.7314 102° East 415 478 16,700 -960 Descending New York Center
04:30PM 40.2161 -76.5881 101° East 405 466 15,700 -1,080 Descending New York Center
04:31PM 40.1925 -76.4311 101° East 400 460 14,600 -1,020 Descending New York Center
04:32PM 40.1778 -76.3469 103° East 393 452 14,100 -600 Descending FAA TRACON SMA TRACON (SMA)
04:32PM 40.1714 -76.3008 100° East 362 417 14,100 -480 Level FAA TRACON SMA TRACON (SMA)
04:32PM 40.1653 -76.2614 101° East 344 396 13,800 -1,080 Descending FAA TRACON SMA TRACON (SMA)
04:33PM 40.1589 -76.2256 103° East 334 384 13,400 -1,380 Descending FAA TRACON SMA TRACON (SMA)
04:33PM 40.1533 -76.1894 101° East 329 379 12,900 -1,680 Descending FAA TRACON SMA TRACON (SMA)
04:33PM 40.1461 -76.1442 102° East 330 380 12,300 -1,380 Descending FAA TRACON SMA TRACON (SMA)
04:34PM 40.1406 -76.1083 101° East 328 377 12,000 -1,200 Descending FAA TRACON SMA TRACON (SMA)
04:34PM 40.1353 -76.0744 102° East 325 374 11,500 -1,800 Descending FAA TRACON SMA TRACON (SMA)
04:34PM 40.1278 -76.0319 103° East 321 369 10,800 -1,800 Descending FAA TRACON SMA TRACON (SMA)
04:35PM 40.1222 -75.9961 101° East 316 364 10,300 -1,500 Descending FAA TRACON SMA TRACON (SMA)
04:35PM 40.1158 -75.9569 102° East 313 360 9,800 -1,680 Descending FAA TRACON SMA TRACON (SMA)
04:35PM 40.1100 -75.9194 101° East 313 360 9,200 -1,560 Descending FAA TRACON SMA TRACON (SMA)
04:36PM 40.1047 -75.8903 103° East 310 357 8,800 -1,500 Descending FAA TRACON SMA TRACON (SMA)
04:36PM 40.0978 -75.8467 102° East 304 350 8,200 -1,080 Descending FAA TRACON SMA TRACON (SMA)
04:36PM 40.0925 -75.8122 101° East 302 348 8,100 -360 Descending FAA TRACON SMA TRACON (SMA)
04:37PM 40.0875 -75.7803 102° East 300 345 8,000 -180 Descending FAA TRACON SMA TRACON (SMA)
04:37PM 40.0819 -75.7411 100° East 299 344 8,000  Level FAA TRACON SMA TRACON (SMA)
04:37PM 40.0803 -75.7050 93° East 291 335 8,000  Level FAA TRACON SMA TRACON (SMA)
04:38PM 40.0786 -75.6722 94° East 296 341 8,000  Level FAA TRACON SMA TRACON (SMA)
04:38PM 40.0769 -75.6319 93° East 301 346 8,000  Level FAA TRACON SMA TRACON (SMA)
04:38PM 40.0753 -75.5972 94° East 300 345 8,000 120 Level FAA TRACON SMA TRACON (SMA)
04:39PM 40.0736 -75.5644 94° East 297 342 8,100  Climbing FAA TRACON SMA TRACON (SMA)
04:39PM 40.0717 -75.5233 94° East 296 341 8,000 -180 Descending FAA TRACON SMA TRACON (SMA)
04:39PM 40.0706 -75.4914 93° East 287 330 8,000 120 Level FAA TRACON SMA TRACON (SMA)
04:40PM 40.0689 -75.4631 94° East 267 307 8,100  Climbing FAA TRACON SMA TRACON (SMA)
04:40PM 40.0672 -75.4350 94° East 254 292 8,000 -300 Descending FAA TRACON SMA TRACON (SMA)
04:40PM 40.0656 -75.3997 94° East 252 290 7,900 -600 Descending FAA TRACON SMA TRACON (SMA)
04:41PM 40.0642 -75.3719 94° East 250 288 7,600 -1,200 Descending FAA TRACON SMA TRACON (SMA)
04:41PM 40.0622 -75.3353 94° East 249 287 7,100 -1,380 Descending FAA TRACON SMA TRACON (SMA)
04:41PM 40.0608 -75.3086 94° East 252 290 6,700 -1,260 Descending FAA TRACON SMA TRACON (SMA)
04:42PM 40.0594 -75.2808 94° East 251 289 6,300 -960 Descending FAA TRACON SMA TRACON (SMA)
04:42PM 40.0581 -75.2531 94° East 249 287 6,100 -300 Descending FAA TRACON SMA TRACON (SMA)
04:42PM 40.0550 -75.2192 97° East 250 288 6,100 -180 Level FAA TRACON SMA TRACON (SMA)
04:43PM 40.0503 -75.1936 104° East 242 278 6,000 -180 Descending FAA TRACON SMA TRACON (SMA)
04:43PM 40.0431 -75.1603 106° East 248 285 6,000  Level FAA TRACON SMA TRACON (SMA)
04:43PM 40.0356 -75.1333 110° East 246 283 6,000  Level FAA TRACON SMA TRACON (SMA)
04:44PM 40.0286 -75.1072 109° East 246 283 6,000 -180 Level FAA TRACON SMA TRACON (SMA)
04:44PM 40.0208 -75.0772 109° East 223 257 5,900 -480 Descending FAA TRACON SMA TRACON (SMA)
04:44PM 40.0150 -75.0542 108° East 213 245 5,700 -960 Descending FAA TRACON SMA TRACON (SMA)
04:45PM 40.0094 -75.0333 109° East 199 229 5,300 -1,320 Descending FAA TRACON SMA TRACON (SMA)
04:45PM 39.9983 -75.0192 136° Southeast 190 219 4,800 -1,740 Descending FAA TRACON SMA TRACON (SMA)
04:45PM 39.9806 -75.0044 148° Southeast 186 214 4,100 -1,680 Descending FAA TRACON SMA TRACON (SMA)
04:46PM 39.9669 -74.9942 150° Southeast 188 216 3,700 -1,140 Descending FAA TRACON SMA TRACON (SMA)
04:46PM 39.9528 -74.9836 150° Southeast 185 213 3,400 -960 Descending FAA TRACON SMA TRACON (SMA)
04:46PM 39.9375 -74.9844 182° South 172 198 3,100 -600 Descending FAA TRACON SMA TRACON (SMA)
04:47PM 39.9258 -75.0031 231° Southwest 187 215 3,000 -180 Descending FAA TRACON SMA TRACON (SMA)
04:47PM 39.9167 -75.0200 235° Southwest 171 197 3,000 -180 Level FAA TRACON SMA TRACON (SMA)
04:47PM 39.9108 -75.0433 252° West 170 196 2,900 -600 Descending FAA TRACON SMA TRACON (SMA)
04:48PM 39.9067 -75.0622 254° West 175 201 2,600 -900 Descending FAA TRACON SMA TRACON (SMA)
04:48PM 39.9033 -75.0803 256° West 168 193 2,300 -900 Descending FAA TRACON SMA TRACON (SMA)
04:48PM 39.8997 -75.0994 256° West 146 168 2,000 -900 Descending FAA TRACON SMA TRACON (SMA)